createdAt,value
2023-02-11T00:02:46.852Z,0.10
2023-02-11T00:05:34.446Z,0.10
2023-02-11T00:08:20.214Z,0.20
2023-02-11T00:11:06.012Z,0.10
2023-02-11T00:13:52.050Z,0.20
2023-02-11T00:16:37.714Z,0.20
2023-02-11T00:19:23.265Z,0.20
2023-02-11T00:22:08.796Z,0.20
2023-02-11T00:24:54.188Z,0.20
2023-02-11T00:27:39.759Z,0.20
2023-02-11T00:30:25.528Z,0.20
2023-02-11T00:33:11.680Z,0.20
2023-02-11T00:35:57.112Z,0.30
2023-02-11T00:38:47.245Z,0.30
2023-02-11T00:41:33.386Z,0.30
2023-02-11T00:44:19.426Z,0.30
2023-02-11T00:47:05.212Z,0.30
2023-02-11T00:49:50.758Z,0.30
2023-02-11T00:52:36.261Z,0.30
2023-02-11T00:55:21.856Z,0.30
2023-02-11T00:58:07.484Z,0.30
2023-02-11T01:00:54.866Z,0.30
2023-02-11T01:03:41.009Z,0.30
2023-02-11T01:06:26.690Z,0.30
2023-02-11T01:09:12.198Z,0.20
2023-02-11T01:11:57.691Z,0.20
2023-02-11T01:14:43.592Z,0.20
2023-02-11T01:17:29.298Z,0.30
2023-02-11T01:20:21.288Z,0.20
2023-02-11T01:23:06.844Z,0.10
2023-02-11T01:25:53.080Z,0.10
2023-02-11T01:28:38.794Z,0.10
2023-02-11T01:31:24.211Z,0.10
2023-02-11T01:34:10.117Z,0.10
2023-02-11T01:36:59.777Z,0.10
2023-02-11T01:39:45.318Z,0.10
2023-02-11T01:42:30.922Z,0.00
2023-02-11T01:45:44.565Z,0.10
2023-02-11T01:48:37.788Z,0.00
2023-02-11T01:51:42.008Z,0.00
2023-02-11T01:54:38.439Z,0.00
2023-02-11T01:57:29.559Z,0.00
2023-02-11T02:00:27.904Z,0.00
2023-02-11T02:03:20.618Z,0.00
2023-02-11T02:06:26.686Z,-0.10
2023-02-11T02:09:22.362Z,0.00
2023-02-11T02:12:08.351Z,-0.10
2023-02-11T02:15:25.564Z,-0.10
2023-02-11T02:19:16.268Z,-0.10
2023-02-11T02:22:52.901Z,-0.10
2023-02-11T02:25:56.159Z,-0.10
2023-02-11T02:29:37.896Z,-0.10
2023-02-11T02:33:13.295Z,-0.10
2023-02-11T02:36:28.636Z,-0.10
2023-02-11T02:39:31.925Z,-0.20
2023-02-11T02:42:19.907Z,-0.10
2023-02-11T02:45:08.217Z,-0.10
2023-02-11T02:47:54.165Z,-0.10
2023-02-11T02:50:39.998Z,-0.10
2023-02-11T02:53:51.477Z,-0.10
2023-02-11T02:57:08.729Z,-0.20
2023-02-11T03:00:30.730Z,-0.20
2023-02-11T03:03:49.018Z,-0.20
2023-02-11T03:07:16.854Z,-0.20
2023-02-11T03:10:48.244Z,-0.10
2023-02-11T03:13:38.106Z,-0.20
2023-02-11T03:16:27.562Z,-0.20
2023-02-11T03:19:22.892Z,-0.20
2023-02-11T03:22:37.284Z,-0.20
2023-02-11T03:25:30.746Z,-0.20
2023-02-11T03:28:55.964Z,-0.20
2023-02-11T03:32:12.913Z,-0.20
2023-02-11T03:35:06.459Z,-0.20
2023-02-11T03:38:07.722Z,-0.20
2023-02-11T03:40:55.973Z,-0.20
2023-02-11T03:43:49.120Z,-0.30
2023-02-11T03:46:38.882Z,-0.20
2023-02-11T03:49:27.374Z,-0.30
2023-02-11T03:52:14.041Z,-0.30
2023-02-11T03:55:03.639Z,-0.30
2023-02-11T03:57:49.477Z,-0.30
2023-02-11T04:00:40.144Z,-0.30
2023-02-11T04:03:25.757Z,-0.30
2023-02-11T04:06:11.816Z,-0.40
2023-02-11T04:08:57.502Z,-0.30
2023-02-11T04:11:43.042Z,-0.40
2023-02-11T04:14:28.349Z,-0.40
2023-02-11T04:17:13.799Z,-0.40
2023-02-11T04:19:59.402Z,-0.40
2023-02-11T04:22:45.233Z,-0.50
2023-02-11T04:25:30.884Z,-0.50
2023-02-11T04:28:16.629Z,-0.60
2023-02-11T04:31:02.589Z,-0.60
2023-02-11T04:33:48.171Z,-0.70
2023-02-11T04:36:33.689Z,-0.70
2023-02-11T04:39:19.646Z,-0.70
2023-02-11T04:42:05.566Z,-0.80
2023-02-11T04:44:51.386Z,-0.90
2023-02-11T04:47:37.078Z,-0.90
2023-02-11T04:50:22.622Z,-1.00
2023-02-11T04:53:08.054Z,-1.10
2023-02-11T04:55:53.818Z,-1.10
2023-02-11T04:58:39.937Z,-1.20
2023-02-11T05:01:25.986Z,-1.20
2023-02-11T05:04:11.815Z,-1.30
2023-02-11T05:06:58.650Z,-1.30
2023-02-11T05:09:44.542Z,-1.40
2023-02-11T05:12:30.102Z,-1.40
2023-02-11T05:15:16.268Z,-1.50
2023-02-11T05:18:02.025Z,-1.50
2023-02-11T05:20:48.149Z,-1.50
2023-02-11T05:23:33.853Z,-1.40
2023-02-11T05:26:19.803Z,-1.40
2023-02-11T05:29:05.505Z,-1.40
2023-02-11T05:31:51.103Z,-1.40
2023-02-11T05:34:36.904Z,-1.30
2023-02-11T05:37:22.772Z,-1.30
2023-02-11T05:40:09.991Z,-1.20
2023-02-11T05:42:55.331Z,-1.20
2023-02-11T05:45:40.823Z,-1.10
2023-02-11T05:48:26.195Z,-1.00
2023-02-11T05:51:11.689Z,-1.00
2023-02-11T05:53:57.153Z,-0.90
2023-02-11T05:56:44.789Z,-0.80
2023-02-11T05:59:30.593Z,-0.80
2023-02-11T06:02:16.135Z,-0.70
2023-02-11T06:05:02.036Z,-0.60
2023-02-11T06:07:47.959Z,-0.50
2023-02-11T06:10:33.294Z,-0.50
2023-02-11T06:13:18.822Z,-0.40
2023-02-11T06:16:04.879Z,-0.30
2023-02-11T06:18:50.691Z,-0.30
2023-02-11T06:21:43.841Z,-0.20
2023-02-11T06:24:54.718Z,-0.20
2023-02-11T06:27:35.912Z,-0.10
2023-02-11T06:30:21.622Z,-0.10
2023-02-11T06:33:07.475Z,0.00
2023-02-11T06:35:53.411Z,0.10
2023-02-11T06:38:39.156Z,0.20
2023-02-11T06:41:25.579Z,0.20
2023-02-11T06:44:11.361Z,0.30
2023-02-11T06:46:57.278Z,0.30
2023-02-11T06:49:42.894Z,0.40
2023-02-11T06:52:28.598Z,0.40
2023-02-11T06:55:15.064Z,0.50
2023-02-11T06:58:00.571Z,0.50
2023-02-11T07:00:46.157Z,0.50
2023-02-11T07:03:32.283Z,0.50
2023-02-11T07:06:24.223Z,0.50
2023-02-11T07:09:10.089Z,0.40
2023-02-11T07:11:56.067Z,0.50
2023-02-11T07:14:41.920Z,0.50
2023-02-11T07:17:27.540Z,0.60
2023-02-11T07:20:13.243Z,0.60
2023-02-11T07:22:59.314Z,0.70
2023-02-11T07:25:45.100Z,0.70
2023-02-11T07:28:31.214Z,0.70
2023-02-11T07:31:25.332Z,0.70
2023-02-11T07:34:11.191Z,0.70
2023-02-11T07:36:56.623Z,0.70
2023-02-11T07:39:42.052Z,0.70
2023-02-11T07:42:28.054Z,0.70
2023-02-11T07:45:14.071Z,0.80
2023-02-11T07:47:59.849Z,0.90
2023-02-11T07:50:45.558Z,0.90
2023-02-11T07:53:31.217Z,1.00
2023-02-11T07:56:19.223Z,1.00
2023-02-11T07:59:05.237Z,1.10
2023-02-11T08:01:51.799Z,1.20
2023-02-11T08:04:37.409Z,1.30
2023-02-11T08:07:23.065Z,1.40
2023-02-11T08:10:09.162Z,1.50
2023-02-11T08:12:54.479Z,1.50
2023-02-11T08:15:40.209Z,1.60
2023-02-11T08:18:25.900Z,1.60
2023-02-11T08:21:11.779Z,1.60
2023-02-11T08:23:57.998Z,1.60
2023-02-11T08:26:43.680Z,1.60
2023-02-11T08:29:29.359Z,1.60
2023-02-11T08:32:14.831Z,1.60
2023-02-11T08:35:00.912Z,1.60
2023-02-11T08:37:46.590Z,1.60
2023-02-11T08:40:31.943Z,1.60
2023-02-11T08:43:17.500Z,1.70
2023-02-11T08:46:03.691Z,1.70
2023-02-11T08:48:49.099Z,1.70
2023-02-11T08:51:35.115Z,1.70
2023-02-11T08:54:20.641Z,1.80
2023-02-11T08:57:06.357Z,1.80
2023-02-11T08:59:52.164Z,1.80
2023-02-11T09:02:38.018Z,1.80
2023-02-11T09:05:24.049Z,1.80
2023-02-11T09:08:10.074Z,1.80
2023-02-11T09:10:57.662Z,1.80
2023-02-11T09:13:45.183Z,1.90
2023-02-11T09:16:36.143Z,1.90
2023-02-11T09:19:22.840Z,1.90
2023-02-11T09:22:09.740Z,1.90
2023-02-11T09:24:55.482Z,2.00
2023-02-11T09:27:41.138Z,2.10
2023-02-11T09:30:27.029Z,2.10
2023-02-11T09:33:12.702Z,2.10
2023-02-11T09:36:05.130Z,2.20
2023-02-11T09:38:51.604Z,2.20
2023-02-11T09:42:06.455Z,2.30
2023-02-11T09:44:53.015Z,2.30
2023-02-11T09:48:13.583Z,2.40
2023-02-11T09:51:01.821Z,2.50
2023-02-11T09:56:41.687Z,2.60
2023-02-11T09:59:19.634Z,2.50
2023-02-11T10:02:22.999Z,2.50
2023-02-11T10:05:29.583Z,2.50
2023-02-11T10:09:08.828Z,2.50
2023-02-11T10:12:42.047Z,2.50
2023-02-11T10:15:45.411Z,2.50
2023-02-11T10:19:12.189Z,2.50
2023-02-11T10:22:47.747Z,2.50
2023-02-11T10:25:59.940Z,2.60
2023-02-11T10:28:50.099Z,2.60
2023-02-11T10:31:44.313Z,2.70
2023-02-11T10:34:30.234Z,2.70
2023-02-11T10:37:15.997Z,2.70
2023-02-11T10:40:01.866Z,2.70
2023-02-11T10:43:00.201Z,2.70
2023-02-11T10:45:55.619Z,2.70
2023-02-11T10:48:53.063Z,2.70
2023-02-11T10:51:38.520Z,2.70
2023-02-11T10:54:23.926Z,2.70
2023-02-11T10:57:19.231Z,2.80
2023-02-11T11:00:41.308Z,2.80
2023-02-11T11:03:34.354Z,2.80
2023-02-11T11:06:32.307Z,2.80
2023-02-11T11:09:56.369Z,2.90
2023-02-11T11:12:49.409Z,2.90
2023-02-11T11:15:34.887Z,2.90
2023-02-11T11:18:23.396Z,2.90
2023-02-11T11:21:48.125Z,2.90
2023-02-11T11:24:45.827Z,2.90
2023-02-11T11:27:31.287Z,3.00
2023-02-11T11:30:17.640Z,3.20
2023-02-11T11:33:03.497Z,3.30
2023-02-11T11:36:12.969Z,3.50
2023-02-11T11:39:24.366Z,3.50
2023-02-11T11:42:35.038Z,3.40
2023-02-11T11:45:26.964Z,3.20
2023-02-11T11:48:28.755Z,3.10
2023-02-11T11:51:14.609Z,3.10
2023-02-11T11:54:12.275Z,3.00
2023-02-11T11:57:11.447Z,2.90
2023-02-11T11:59:58.792Z,2.90
2023-02-11T12:03:53.816Z,2.80
2023-02-11T12:07:41.417Z,2.80
2023-02-11T12:11:10.244Z,2.90
2023-02-11T12:14:46.257Z,2.90
2023-02-11T12:18:05.302Z,2.80
2023-02-11T12:21:06.740Z,2.90
2023-02-11T12:24:19.229Z,3.00
2023-02-11T12:27:52.018Z,3.10
2023-02-11T12:31:45.696Z,3.30
2023-02-11T12:35:28.598Z,3.60
2023-02-11T12:39:11.583Z,3.70
2023-02-11T12:42:37.062Z,3.70
2023-02-11T12:46:20.248Z,3.80
2023-02-11T12:50:02.303Z,3.60
2023-02-11T12:53:44.716Z,3.50
2023-02-11T12:56:38.160Z,3.50
2023-02-11T13:00:08.615Z,3.50
2023-02-11T13:03:09.342Z,3.40
2023-02-11T13:06:36.815Z,3.40
2023-02-11T13:09:33.189Z,3.40
2023-02-11T13:12:19.346Z,3.30
2023-02-11T13:15:14.101Z,3.30
2023-02-11T13:18:52.488Z,3.20
2023-02-11T13:22:02.226Z,3.10
2023-02-11T13:25:00.132Z,3.00
2023-02-11T13:28:18.297Z,2.90
2023-02-11T13:31:05.045Z,2.90
2023-02-11T13:33:50.866Z,3.00
2023-02-11T13:36:36.418Z,3.00
2023-02-11T13:39:23.151Z,3.00
2023-02-11T13:42:16.480Z,3.00
2023-02-11T13:45:02.512Z,3.00
2023-02-11T13:47:50.953Z,3.00
2023-02-11T13:50:47.855Z,3.00
2023-02-11T13:53:57.146Z,3.00
2023-02-11T13:56:42.894Z,3.00
2023-02-11T13:59:28.347Z,3.00
2023-02-11T14:02:38.203Z,3.00
2023-02-11T14:05:31.498Z,3.00
2023-02-11T14:08:24.651Z,3.00
2023-02-11T14:11:33.680Z,3.00
2023-02-11T14:14:33.715Z,2.90
2023-02-11T14:17:28.905Z,2.90
2023-02-11T14:20:41.635Z,2.80
2023-02-11T14:23:27.495Z,2.80
2023-02-11T14:26:22.236Z,2.70
2023-02-11T14:29:42.305Z,2.60
2023-02-11T14:32:55.872Z,2.50
2023-02-11T14:36:31.189Z,2.50
2023-02-11T14:39:54.594Z,2.40
2023-02-11T14:42:40.300Z,2.40
2023-02-11T14:45:29.026Z,2.40
2023-02-11T14:48:31.872Z,2.40
2023-02-11T14:51:36.341Z,2.40
2023-02-11T14:54:27.071Z,2.30
2023-02-11T14:57:20.272Z,2.30
2023-02-11T15:00:21.979Z,2.30
2023-02-11T15:03:33.869Z,2.30
2023-02-11T15:06:23.581Z,2.30
2023-02-11T15:09:32.700Z,2.20
2023-02-11T15:12:25.717Z,2.20
2023-02-11T15:15:13.997Z,2.10
2023-02-11T15:18:03.702Z,2.10
2023-02-11T15:20:51.477Z,2.10
2023-02-11T15:23:38.551Z,2.10
2023-02-11T15:26:24.450Z,2.10
2023-02-11T15:29:19.278Z,2.00
2023-02-11T15:32:18.348Z,2.00
2023-02-11T15:35:11.402Z,2.00
2023-02-11T15:37:59.559Z,1.90
2023-02-11T15:40:59.765Z,1.90
2023-02-11T15:43:47.843Z,1.90
2023-02-11T15:46:39.027Z,1.90
2023-02-11T15:49:26.237Z,1.90
2023-02-11T15:52:25.409Z,1.90
2023-02-11T15:55:15.885Z,1.90
2023-02-11T15:58:02.233Z,1.90
2023-02-11T16:00:52.440Z,1.90
2023-02-11T16:03:38.389Z,1.90
2023-02-11T16:06:37.874Z,1.90
2023-02-11T16:09:36.909Z,1.90
2023-02-11T16:12:26.775Z,1.90
2023-02-11T16:15:34.479Z,1.90
2023-02-11T16:18:38.864Z,1.90
2023-02-11T16:21:34.275Z,1.80
2023-02-11T16:24:26.278Z,1.90
2023-02-11T16:27:34.111Z,1.80
2023-02-11T16:30:39.234Z,1.80
2023-02-11T16:33:25.070Z,1.80
2023-02-11T16:36:16.270Z,1.80
2023-02-11T16:39:01.633Z,1.80
2023-02-11T16:41:47.667Z,1.70
2023-02-11T16:44:34.449Z,1.80
2023-02-11T16:47:28.921Z,1.80
2023-02-11T16:50:25.739Z,1.80
2023-02-11T16:53:12.328Z,1.70
2023-02-11T16:55:57.909Z,1.80
2023-02-11T16:58:44.732Z,1.80
2023-02-11T17:01:30.562Z,1.80
2023-02-11T17:04:30.059Z,1.80
2023-02-11T17:07:15.932Z,1.80
2023-02-11T17:10:02.014Z,1.80
2023-02-11T17:12:49.461Z,1.80
2023-02-11T17:15:35.531Z,1.80
2023-02-11T17:18:21.298Z,1.80
2023-02-11T17:21:07.616Z,1.80
2023-02-11T17:23:53.805Z,1.80
2023-02-11T17:26:39.887Z,1.90
2023-02-11T17:29:26.222Z,1.80
2023-02-11T17:32:11.755Z,1.90
2023-02-11T17:34:57.559Z,1.90
2023-02-11T17:37:43.321Z,1.90
2023-02-11T17:40:29.066Z,1.90
2023-02-11T17:43:15.148Z,1.90
2023-02-11T17:46:00.851Z,1.90
2023-02-11T17:48:46.902Z,1.90
2023-02-11T17:51:38.146Z,1.90
2023-02-11T17:54:23.471Z,1.90
2023-02-11T17:57:11.694Z,1.90
2023-02-11T17:59:57.485Z,2.00
2023-02-11T18:02:43.335Z,2.00
2023-02-11T18:05:36.845Z,2.00
2023-02-11T18:08:22.447Z,2.00
2023-02-11T18:11:13.823Z,2.00
2023-02-11T18:14:04.877Z,2.00
2023-02-11T18:16:52.858Z,2.00
2023-02-11T18:19:38.755Z,2.00
2023-02-11T18:22:25.540Z,2.00
2023-02-11T18:25:15.048Z,2.00
2023-02-11T18:28:00.693Z,2.00
2023-02-11T18:30:46.860Z,2.00
2023-02-11T18:33:33.819Z,2.00
2023-02-11T18:36:20.665Z,2.00
2023-02-11T18:39:06.357Z,2.00
2023-02-11T18:41:55.730Z,2.10
2023-02-11T18:44:41.835Z,2.00
2023-02-11T18:47:27.735Z,2.10
2023-02-11T18:50:14.331Z,2.10
2023-02-11T18:53:00.291Z,2.00
2023-02-11T18:55:47.663Z,2.00
2023-02-11T18:58:33.245Z,2.00
2023-02-11T19:01:24.694Z,2.00
2023-02-11T19:04:10.202Z,2.00
2023-02-11T19:06:55.900Z,2.00
2023-02-11T19:09:41.672Z,2.00
2023-02-11T19:12:27.209Z,1.90
2023-02-11T19:15:12.814Z,1.90
2023-02-11T19:17:58.816Z,1.90
2023-02-11T19:20:45.175Z,1.90
2023-02-11T19:23:30.627Z,1.90
2023-02-11T19:26:15.883Z,1.80
2023-02-11T19:29:02.417Z,1.80
2023-02-11T19:31:48.237Z,1.80
2023-02-11T19:34:34.796Z,1.70
2023-02-11T19:37:20.470Z,1.70
2023-02-11T19:40:07.425Z,1.70
2023-02-11T19:42:52.912Z,1.70
2023-02-11T19:45:38.741Z,1.60
2023-02-11T19:48:25.494Z,1.60
2023-02-11T19:51:13.281Z,1.60
2023-02-11T19:54:00.580Z,1.60
2023-02-11T19:56:47.859Z,1.60
2023-02-11T19:59:33.346Z,1.60
2023-02-11T20:02:19.591Z,1.50
2023-02-11T20:05:06.179Z,1.60
2023-02-11T20:07:51.644Z,1.60
2023-02-11T20:10:37.079Z,1.60
2023-02-11T20:13:22.446Z,1.50
2023-02-11T20:16:21.974Z,1.50
2023-02-11T20:19:07.817Z,1.50
2023-02-11T20:21:54.655Z,1.50
2023-02-11T20:24:40.127Z,1.50
2023-02-11T20:27:25.652Z,1.50
2023-02-11T20:30:11.967Z,1.50
2023-02-11T20:32:57.788Z,1.50
2023-02-11T20:35:43.480Z,1.50
2023-02-11T20:38:29.639Z,1.50
2023-02-11T20:41:22.004Z,1.40
2023-02-11T20:44:10.947Z,1.40
2023-02-11T20:46:56.708Z,1.40
2023-02-11T20:49:42.267Z,1.40
2023-02-11T20:52:27.766Z,1.40
2023-02-11T20:55:13.311Z,1.40
2023-02-11T20:57:59.040Z,1.40
2023-02-11T21:00:44.654Z,1.40
2023-02-11T21:03:30.355Z,1.30
2023-02-11T21:06:15.766Z,1.40
2023-02-11T21:09:03.250Z,1.40
2023-02-11T21:11:51.707Z,1.30
2023-02-11T21:14:37.538Z,1.40
2023-02-11T21:17:23.451Z,1.40
2023-02-11T21:20:09.726Z,1.40
2023-02-11T21:22:55.413Z,1.40
2023-02-11T21:25:41.140Z,1.40
2023-02-11T21:28:27.398Z,1.40
2023-02-11T21:31:30.534Z,1.40
2023-02-11T21:34:17.323Z,1.40
2023-02-11T21:37:02.558Z,1.40
2023-02-11T21:39:48.029Z,1.50
2023-02-11T21:42:33.331Z,1.50
2023-02-11T21:45:18.698Z,1.40
2023-02-11T21:48:04.237Z,1.40
2023-02-11T21:50:49.719Z,1.40
2023-02-11T21:53:35.739Z,1.40
2023-02-11T21:56:21.686Z,1.40
2023-02-11T21:59:07.466Z,1.40
2023-02-11T22:01:53.112Z,1.40
2023-02-11T22:04:38.573Z,1.40
2023-02-11T22:07:23.905Z,1.40
2023-02-11T22:10:10.385Z,1.40
2023-02-11T22:12:55.728Z,1.40
2023-02-11T22:15:41.283Z,1.40
2023-02-11T22:18:27.470Z,1.40
2023-02-11T22:21:17.595Z,1.40
2023-02-11T22:24:03.594Z,1.40
2023-02-11T22:26:51.144Z,1.30
2023-02-11T22:29:36.796Z,1.30
2023-02-11T22:32:22.687Z,1.30
2023-02-11T22:35:08.716Z,1.30
2023-02-11T22:37:54.268Z,1.30
2023-02-11T22:40:45.623Z,1.30
2023-02-11T22:43:31.062Z,1.30
2023-02-11T22:46:18.959Z,1.30
2023-02-11T22:49:05.930Z,1.30
2023-02-11T22:51:51.878Z,1.30
2023-02-11T22:54:37.236Z,1.30
2023-02-11T22:57:22.540Z,1.30
2023-02-11T23:00:10.620Z,1.30
2023-02-11T23:02:56.536Z,1.30
2023-02-11T23:05:42.597Z,1.30
2023-02-11T23:08:30.887Z,1.40
2023-02-11T23:11:24.770Z,1.30
2023-02-11T23:14:11.039Z,1.40
2023-02-11T23:16:56.668Z,1.40
2023-02-11T23:19:42.567Z,1.40
2023-02-11T23:22:28.546Z,1.40
2023-02-11T23:25:14.155Z,1.40
2023-02-11T23:28:00.378Z,1.40
2023-02-11T23:30:46.165Z,1.50
2023-02-11T23:33:31.692Z,1.50
2023-02-11T23:36:20.243Z,1.40
2023-02-11T23:39:06.136Z,1.40
2023-02-11T23:41:53.051Z,1.40
2023-02-11T23:44:38.897Z,1.50
2023-02-11T23:47:24.320Z,1.40
2023-02-11T23:50:10.832Z,1.40
2023-02-11T23:52:56.164Z,1.50
2023-02-11T23:55:44.011Z,1.50
2023-02-11T23:58:29.695Z,1.50
